sensor_id;sensor_type;location;lat;lon;timestamp;temperature;humidity
21439;DHT22;10880;50.302;18.736;2022-11-20T00:03:56;0.40;51.10
21439;DHT22;10880;50.302;18.736;2022-11-20T00:06:25;0.40;51.70
21439;DHT22;10880;50.302;18.736;2022-11-20T00:08:55;1.20;52.20
21439;DHT22;10880;50.302;18.736;2022-11-20T00:11:23;0.90;52.00
21439;DHT22;10880;50.302;18.736;2022-11-20T00:13:52;0.40;51.70
21439;DHT22;10880;50.302;18.736;2022-11-20T00:16:24;0.40;51.60
21439;DHT22;10880;50.302;18.736;2022-11-20T00:18:53;0.30;51.60
21439;DHT22;10880;50.302;18.736;2022-11-20T00:21:23;0.30;51.10
21439;DHT22;10880;50.302;18.736;2022-11-20T00:23:51;1.70;52.40
21439;DHT22;10880;50.302;18.736;2022-11-20T00:26:22;0.30;51.50
21439;DHT22;10880;50.302;18.736;2022-11-20T00:28:54;0.30;51.60
21439;DHT22;10880;50.302;18.736;2022-11-20T00:31:25;0.20;51.40
21439;DHT22;10880;50.302;18.736;2022-11-20T00:33:52;0.20;51.60
21439;DHT22;10880;50.302;18.736;2022-11-20T00:36:20;0.20;51.10
21439;DHT22;10880;50.302;18.736;2022-11-20T00:38:51;0.20;51.70
21439;DHT22;10880;50.302;18.736;2022-11-20T00:41:21;0.20;51.70
21439;DHT22;10880;50.302;18.736;2022-11-20T00:43:48;0.20;51.30
21439;DHT22;10880;50.302;18.736;2022-11-20T00:46:20;0.30;50.80
21439;DHT22;10880;50.302;18.736;2022-11-20T00:48:47;0.10;51.60
21439;DHT22;10880;50.302;18.736;2022-11-20T00:51:17;0.10;51.40
21439;DHT22;10880;50.302;18.736;2022-11-20T00:53:44;0.10;51.50
21439;DHT22;10880;50.302;18.736;2022-11-20T00:56:15;0.10;51.30
21439;DHT22;10880;50.302;18.736;2022-11-20T00:58:46;1.50;52.50
21439;DHT22;10880;50.302;18.736;2022-11-20T01:01:14;0.10;51.90
21439;DHT22;10880;50.302;18.736;2022-11-20T01:03:43;0.10;51.90
21439;DHT22;10880;50.302;18.736;2022-11-20T01:06:16;0.10;51.80
21439;DHT22;10880;50.302;18.736;2022-11-20T01:08:44;0.10;51.70
21439;DHT22;10880;50.302;18.736;2022-11-20T01:11:18;0.10;51.60
21439;DHT22;10880;50.302;18.736;2022-11-20T01:13:46;0.40;51.70
21439;DHT22;10880;50.302;18.736;2022-11-20T01:16:23;0.00;51.70
21439;DHT22;10880;50.302;18.736;2022-11-20T01:18:52;0.10;51.70
21439;DHT22;10880;50.302;18.736;2022-11-20T01:21:25;0.00;51.50
21439;DHT22;10880;50.302;18.736;2022-11-20T01:23:52;1.10;52.10
21439;DHT22;10880;50.302;18.736;2022-11-20T01:26:21;0.00;51.10
21439;DHT22;10880;50.302;18.736;2022-11-20T01:28:48;0.00;51.20
21439;DHT22;10880;50.302;18.736;2022-11-20T01:33:46;-0.10;51.70
21439;DHT22;10880;50.302;18.736;2022-11-20T01:36:14;-0.10;51.50
21439;DHT22;10880;50.302;18.736;2022-11-20T01:38:40;-0.10;51.50
21439;DHT22;10880;50.302;18.736;2022-11-20T01:41:11;-0.10;51.10
21439;DHT22;10880;50.302;18.736;2022-11-20T01:43:58;-0.10;51.70
21439;DHT22;10880;50.302;18.736;2022-11-20T01:46:24;-0.10;51.70
21439;DHT22;10880;50.302;18.736;2022-11-20T01:54:12;1.30;52.10
21439;DHT22;10880;50.302;18.736;2022-11-20T01:56:41;0.00;52.50
21439;DHT22;10880;50.302;18.736;2022-11-20T01:59:10;0.90;52.30
21439;DHT22;10880;50.302;18.736;2022-11-20T02:01:38;0.00;51.70
21439;DHT22;10880;50.302;18.736;2022-11-20T02:04:06;1.70;52.50
21439;DHT22;10880;50.302;18.736;2022-11-20T02:06:46;0.00;51.60
21439;DHT22;10880;50.302;18.736;2022-11-20T02:09:14;0.10;51.60
21439;DHT22;10880;50.302;18.736;2022-11-20T02:11:44;0.40;51.60
21439;DHT22;10880;50.302;18.736;2022-11-20T02:14:13;2.20;51.90
21439;DHT22;10880;50.302;18.736;2022-11-20T02:16:44;-0.10;51.40
21439;DHT22;10880;50.302;18.736;2022-11-20T02:19:30;-0.20;51.30
21439;DHT22;10880;50.302;18.736;2022-11-20T02:22:05;-0.10;51.50
21439;DHT22;10880;50.302;18.736;2022-11-20T02:24:33;1.70;52.50
21439;DHT22;10880;50.302;18.736;2022-11-20T02:27:14;-0.20;51.30
21439;DHT22;10880;50.302;18.736;2022-11-20T02:29:56;-0.20;51.60
21439;DHT22;10880;50.302;18.736;2022-11-20T02:32:28;1.10;52.30
21439;DHT22;10880;50.302;18.736;2022-11-20T02:37:47;0.50;51.50
21439;DHT22;10880;50.302;18.736;2022-11-20T02:40:17;-0.10;51.70
21439;DHT22;10880;50.302;18.736;2022-11-20T02:42:52;-0.10;51.30
21439;DHT22;10880;50.302;18.736;2022-11-20T02:45:18;-0.20;51.50
21439;DHT22;10880;50.302;18.736;2022-11-20T02:47:45;-0.20;50.90
21439;DHT22;10880;50.302;18.736;2022-11-20T02:50:13;-0.10;51.90
21439;DHT22;10880;50.302;18.736;2022-11-20T02:52:40;-0.20;50.90
21439;DHT22;10880;50.302;18.736;2022-11-20T02:55:10;-0.30;51.40
21439;DHT22;10880;50.302;18.736;2022-11-20T02:57:39;-0.30;51.40
21439;DHT22;10880;50.302;18.736;2022-11-20T03:00:08;0.50;51.40
21439;DHT22;10880;50.302;18.736;2022-11-20T03:02:35;-0.30;51.40
21439;DHT22;10880;50.302;18.736;2022-11-20T03:05:02;-0.30;51.00
21439;DHT22;10880;50.302;18.736;2022-11-20T03:07:28;-0.30;51.20
21439;DHT22;10880;50.302;18.736;2022-11-20T03:09:55;-0.30;51.20
21439;DHT22;10880;50.302;18.736;2022-11-20T03:12:21;-0.30;51.00
21439;DHT22;10880;50.302;18.736;2022-11-20T03:14:48;-0.30;51.00
21439;DHT22;10880;50.302;18.736;2022-11-20T03:17:16;-0.30;51.10
21439;DHT22;10880;50.302;18.736;2022-11-20T03:19:42;-0.30;51.60
21439;DHT22;10880;50.302;18.736;2022-11-20T03:22:09;-0.30;51.10
21439;DHT22;10880;50.302;18.736;2022-11-20T03:24:36;-0.30;51.60
21439;DHT22;10880;50.302;18.736;2022-11-20T03:27:02;-0.30;51.30
21439;DHT22;10880;50.302;18.736;2022-11-20T03:29:32;-0.30;51.50
21439;DHT22;10880;50.302;18.736;2022-11-20T03:31:59;1.10;51.80
21439;DHT22;10880;50.302;18.736;2022-11-20T03:34:25;0.10;51.30
21439;DHT22;10880;50.302;18.736;2022-11-20T03:36:52;0.90;51.60
21439;DHT22;10880;50.302;18.736;2022-11-20T03:39:18;-0.40;51.10
21439;DHT22;10880;50.302;18.736;2022-11-20T03:41:45;-0.40;51.10
21439;DHT22;10880;50.302;18.736;2022-11-20T03:44:12;0.50;51.30
21439;DHT22;10880;50.302;18.736;2022-11-20T03:46:44;-0.40;50.90
21439;DHT22;10880;50.302;18.736;2022-11-20T03:49:10;1.90;52.10
21439;DHT22;10880;50.302;18.736;2022-11-20T03:51:38;-0.50;51.30
21439;DHT22;10880;50.302;18.736;2022-11-20T03:54:08;-0.50;51.10
21439;DHT22;10880;50.302;18.736;2022-11-20T03:56:38;-0.50;51.20
21439;DHT22;10880;50.302;18.736;2022-11-20T03:59:10;1.60;52.60
21439;DHT22;10880;50.302;18.736;2022-11-20T04:01:36;-0.50;51.10
21439;DHT22;10880;50.302;18.736;2022-11-20T04:04:03;-0.50;51.40
21439;DHT22;10880;50.302;18.736;2022-11-20T04:06:35;-0.50;51.10
21439;DHT22;10880;50.302;18.736;2022-11-20T04:09:03;-0.50;51.90
21439;DHT22;10880;50.302;18.736;2022-11-20T04:11:33;-0.50;51.70
21439;DHT22;10880;50.302;18.736;2022-11-20T04:14:02;-0.40;51.90
21439;DHT22;10880;50.302;18.736;2022-11-20T04:16:32;-0.50;51.90
21439;DHT22;10880;50.302;18.736;2022-11-20T04:19:01;-0.40;52.00
21439;DHT22;10880;50.302;18.736;2022-11-20T04:21:31;-0.40;51.90
21439;DHT22;10880;50.302;18.736;2022-11-20T04:24:03;0.70;52.00
21439;DHT22;10880;50.302;18.736;2022-11-20T04:26:30;-0.30;51.90
21439;DHT22;10880;50.302;18.736;2022-11-20T04:28:57;-0.30;51.70
21439;DHT22;10880;50.302;18.736;2022-11-20T04:31:32;-0.40;51.70
21439;DHT22;10880;50.302;18.736;2022-11-20T04:34:03;0.70;52.20
21439;DHT22;10880;50.302;18.736;2022-11-20T04:36:33;-0.30;51.50
21439;DHT22;10880;50.302;18.736;2022-11-20T04:39:03;-0.40;51.30
21439;DHT22;10880;50.302;18.736;2022-11-20T04:41:34;-0.40;50.90
21439;DHT22;10880;50.302;18.736;2022-11-20T04:44:05;-0.40;51.40
21439;DHT22;10880;50.302;18.736;2022-11-20T04:46:38;0.20;51.60
21439;DHT22;10880;50.302;18.736;2022-11-20T04:49:07;-0.40;51.30
21439;DHT22;10880;50.302;18.736;2022-11-20T04:51:34;-0.50;50.90
21439;DHT22;10880;50.302;18.736;2022-11-20T04:54:03;-0.50;51.30
21439;DHT22;10880;50.302;18.736;2022-11-20T04:56:32;-0.50;51.20
21439;DHT22;10880;50.302;18.736;2022-11-20T04:59:02;-0.50;51.20
21439;DHT22;10880;50.302;18.736;2022-11-20T05:01:29;2.00;52.60
21439;DHT22;10880;50.302;18.736;2022-11-20T05:03:58;-0.30;52.10
21439;DHT22;10880;50.302;18.736;2022-11-20T05:06:27;-0.50;51.10
21439;DHT22;10880;50.302;18.736;2022-11-20T05:08:55;-0.40;50.90
21439;DHT22;10880;50.302;18.736;2022-11-20T05:11:25;-0.50;50.70
21439;DHT22;10880;50.302;18.736;2022-11-20T05:13:51;-0.50;51.00
21439;DHT22;10880;50.302;18.736;2022-11-20T05:16:23;-0.50;50.90
21439;DHT22;10880;50.302;18.736;2022-11-20T05:18:50;-0.50;51.40
21439;DHT22;10880;50.302;18.736;2022-11-20T05:23:44;-0.60;50.90
21439;DHT22;10880;50.302;18.736;2022-11-20T05:26:21;-0.60;51.40
21439;DHT22;10880;50.302;18.736;2022-11-20T05:28:51;-0.30;51.50
21439;DHT22;10880;50.302;18.736;2022-11-20T05:31:23;-0.50;51.30
21439;DHT22;10880;50.302;18.736;2022-11-20T05:33:50;-0.10;51.70
21439;DHT22;10880;50.302;18.736;2022-11-20T05:36:17;-0.40;51.60
21439;DHT22;10880;50.302;18.736;2022-11-20T05:38:44;-0.60;51.60
21439;DHT22;10880;50.302;18.736;2022-11-20T05:41:16;-0.60;51.20
21439;DHT22;10880;50.302;18.736;2022-11-20T05:43:45;-0.60;51.70
21439;DHT22;10880;50.302;18.736;2022-11-20T05:46:14;-0.60;51.70
21439;DHT22;10880;50.302;18.736;2022-11-20T05:48:42;-0.60;51.60
21439;DHT22;10880;50.302;18.736;2022-11-20T05:51:11;0.30;52.00
21439;DHT22;10880;50.302;18.736;2022-11-20T05:53:42;-0.30;51.60
21439;DHT22;10880;50.302;18.736;2022-11-20T05:56:14;-0.60;50.90
21439;DHT22;10880;50.302;18.736;2022-11-20T05:58:41;-0.30;51.40
21439;DHT22;10880;50.302;18.736;2022-11-20T06:01:15;-0.60;51.30
21439;DHT22;10880;50.302;18.736;2022-11-20T06:03:45;-0.60;51.50
21439;DHT22;10880;50.302;18.736;2022-11-20T06:06:17;-0.70;51.40
21439;DHT22;10880;50.302;18.736;2022-11-20T06:08:44;-0.60;51.60
21439;DHT22;10880;50.302;18.736;2022-11-20T06:11:18;-0.60;51.50
21439;DHT22;10880;50.302;18.736;2022-11-20T06:13:46;-0.50;51.40
21439;DHT22;10880;50.302;18.736;2022-11-20T06:16:17;-0.60;51.00
21439;DHT22;10880;50.302;18.736;2022-11-20T06:18:45;0.10;51.80
21439;DHT22;10880;50.302;18.736;2022-11-20T06:21:15;-0.60;51.40
21439;DHT22;10880;50.302;18.736;2022-11-20T06:23:45;1.00;52.20
21439;DHT22;10880;50.302;18.736;2022-11-20T06:26:19;0.50;51.90
21439;DHT22;10880;50.302;18.736;2022-11-20T06:28:46;-1.00;50.70
21439;DHT22;10880;50.302;18.736;2022-11-20T06:31:18;-0.60;51.40
21439;DHT22;10880;50.302;18.736;2022-11-20T06:33:45;-0.70;51.30
21439;DHT22;10880;50.302;18.736;2022-11-20T06:36:13;-0.70;50.90
21439;DHT22;10880;50.302;18.736;2022-11-20T06:38:48;-0.70;51.40
21439;DHT22;10880;50.302;18.736;2022-11-20T06:41:20;0.10;51.40
21439;DHT22;10880;50.302;18.736;2022-11-20T06:43:47;-0.70;51.50
21439;DHT22;10880;50.302;18.736;2022-11-20T06:46:16;-0.70;51.50
21439;DHT22;10880;50.302;18.736;2022-11-20T06:48:47;-0.70;51.60
21439;DHT22;10880;50.302;18.736;2022-11-20T06:53:48;-0.60;51.30
21439;DHT22;10880;50.302;18.736;2022-11-20T06:56:15;-0.60;51.40
21439;DHT22;10880;50.302;18.736;2022-11-20T06:58:51;-0.60;51.50
21439;DHT22;10880;50.302;18.736;2022-11-20T07:01:17;-0.50;51.30
21439;DHT22;10880;50.302;18.736;2022-11-20T07:03:44;-0.40;51.40
21439;DHT22;10880;50.302;18.736;2022-11-20T07:06:11;2.10;52.70
21439;DHT22;10880;50.302;18.736;2022-11-20T07:11:06;-0.50;51.40
21439;DHT22;10880;50.302;18.736;2022-11-20T07:13:34;1.10;52.80
21439;DHT22;10880;50.302;18.736;2022-11-20T07:16:03;0.80;52.40
21439;DHT22;10880;50.302;18.736;2022-11-20T07:18:31;-0.40;52.10
21439;DHT22;10880;50.302;18.736;2022-11-20T07:21:07;-0.30;51.90
21439;DHT22;10880;50.302;18.736;2022-11-20T07:23:34;-0.30;52.20
21439;DHT22;10880;50.302;18.736;2022-11-20T07:26:12;-0.30;52.30
21439;DHT22;10880;50.302;18.736;2022-11-20T07:28:51;-0.20;52.40
21439;DHT22;10880;50.302;18.736;2022-11-20T07:31:24;-0.20;51.90
21439;DHT22;10880;50.302;18.736;2022-11-20T07:33:50;-0.10;52.50
21439;DHT22;10880;50.302;18.736;2022-11-20T07:36:17;-0.10;51.90
21439;DHT22;10880;50.302;18.736;2022-11-20T07:38:43;0.00;51.90
21439;DHT22;10880;50.302;18.736;2022-11-20T07:43:37;0.20;52.30
21439;DHT22;10880;50.302;18.736;2022-11-20T07:46:04;0.20;52.20
21439;DHT22;10880;50.302;18.736;2022-11-20T07:48:30;0.30;52.40
21439;DHT22;10880;50.302;18.736;2022-11-20T07:50:57;0.80;52.60
21439;DHT22;10880;50.302;18.736;2022-11-20T07:53:23;0.50;52.50
21439;DHT22;10880;50.302;18.736;2022-11-20T07:55:51;2.20;53.80
21439;DHT22;10880;50.302;18.736;2022-11-20T07:58:23;1.00;53.30
21439;DHT22;10880;50.302;18.736;2022-11-20T08:01:12;0.70;53.20
21439;DHT22;10880;50.302;18.736;2022-11-20T08:03:41;0.70;53.00
21439;DHT22;10880;50.302;18.736;2022-11-20T08:06:07;0.80;52.90
21439;DHT22;10880;50.302;18.736;2022-11-20T08:08:34;0.90;53.30
21439;DHT22;10880;50.302;18.736;2022-11-20T08:11:02;1.80;54.00
21439;DHT22;10880;50.302;18.736;2022-11-20T08:13:47;1.10;53.80
21439;DHT22;10880;50.302;18.736;2022-11-20T08:16:32;1.10;54.00
21439;DHT22;10880;50.302;18.736;2022-11-20T08:19:02;1.20;53.70
21439;DHT22;10880;50.302;18.736;2022-11-20T08:21:30;1.60;54.00
21439;DHT22;10880;50.302;18.736;2022-11-20T08:23:58;1.30;54.60
21439;DHT22;10880;50.302;18.736;2022-11-20T08:26:25;1.40;54.40
21439;DHT22;10880;50.302;18.736;2022-11-20T08:28:56;1.60;55.30
21439;DHT22;10880;50.302;18.736;2022-11-20T08:31:24;1.50;55.40
21439;DHT22;10880;50.302;18.736;2022-11-20T08:33:54;1.60;55.40
21439;DHT22;10880;50.302;18.736;2022-11-20T08:36:22;1.60;55.40
21439;DHT22;10880;50.302;18.736;2022-11-20T08:38:51;1.70;55.50
21439;DHT22;10880;50.302;18.736;2022-11-20T08:41:22;2.00;55.70
21439;DHT22;10880;50.302;18.736;2022-11-20T08:44:09;1.90;55.70
21439;DHT22;10880;50.302;18.736;2022-11-20T08:46:39;2.00;56.00
21439;DHT22;10880;50.302;18.736;2022-11-20T08:49:11;2.10;56.30
21439;DHT22;10880;50.302;18.736;2022-11-20T08:51:38;3.10;56.80
21439;DHT22;10880;50.302;18.736;2022-11-20T08:54:05;4.40;56.90
21439;DHT22;10880;50.302;18.736;2022-11-20T08:56:32;2.40;55.90
21439;DHT22;10880;50.302;18.736;2022-11-20T08:59:04;2.40;56.10
21439;DHT22;10880;50.302;18.736;2022-11-20T09:01:31;2.50;56.30
21439;DHT22;10880;50.302;18.736;2022-11-20T09:03:58;2.50;55.70
21439;DHT22;10880;50.302;18.736;2022-11-20T09:06:26;2.60;56.20
21439;DHT22;10880;50.302;18.736;2022-11-20T09:08:53;2.70;56.10
21439;DHT22;10880;50.302;18.736;2022-11-20T09:11:20;2.80;56.30
21439;DHT22;10880;50.302;18.736;2022-11-20T09:16:15;2.90;56.30
21439;DHT22;10880;50.302;18.736;2022-11-20T09:18:45;3.30;56.90
21439;DHT22;10880;50.302;18.736;2022-11-20T09:21:13;3.00;56.90
21439;DHT22;10880;50.302;18.736;2022-11-20T09:23:45;3.10;56.60
21439;DHT22;10880;50.302;18.736;2022-11-20T09:26:13;3.10;57.00
21439;DHT22;10880;50.302;18.736;2022-11-20T09:28:40;3.70;56.90
21439;DHT22;10880;50.302;18.736;2022-11-20T09:31:23;3.20;56.40
21439;DHT22;10880;50.302;18.736;2022-11-20T09:33:52;3.30;57.10
21439;DHT22;10880;50.302;18.736;2022-11-20T09:36:19;4.30;57.40
21439;DHT22;10880;50.302;18.736;2022-11-20T09:38:46;5.10;57.20
21439;DHT22;10880;50.302;18.736;2022-11-20T09:49:36;3.80;56.70
21439;DHT22;10880;50.302;18.736;2022-11-20T09:55:01;3.90;57.10
21439;DHT22;10880;50.302;18.736;2022-11-20T09:57:42;3.90;57.00
21439;DHT22;10880;50.302;18.736;2022-11-20T10:00:16;3.90;57.00
21439;DHT22;10880;50.302;18.736;2022-11-20T10:05:23;4.10;56.50
21439;DHT22;10880;50.302;18.736;2022-11-20T10:08:03;4.10;57.00
21439;DHT22;10880;50.302;18.736;2022-11-20T10:10:43;5.10;57.50
21439;DHT22;10880;50.302;18.736;2022-11-20T10:22:40;4.30;57.10
21439;DHT22;10880;50.302;18.736;2022-11-20T10:25:12;4.40;57.10
21439;DHT22;10880;50.302;18.736;2022-11-20T10:31:02;4.50;57.10
21439;DHT22;10880;50.302;18.736;2022-11-20T10:33:36;4.50;57.00
21439;DHT22;10880;50.302;18.736;2022-11-20T10:39:25;4.60;57.10
21439;DHT22;10880;50.302;18.736;2022-11-20T10:41:56;4.60;57.20
21439;DHT22;10880;50.302;18.736;2022-11-20T10:44:29;4.70;56.80
21439;DHT22;10880;50.302;18.736;2022-11-20T10:47:17;4.80;57.00
21439;DHT22;10880;50.302;18.736;2022-11-20T10:49:46;4.90;56.60
21439;DHT22;10880;50.302;18.736;2022-11-20T10:57:48;5.00;56.90
21439;DHT22;10880;50.302;18.736;2022-11-20T11:00:16;5.10;56.90
21439;DHT22;10880;50.302;18.736;2022-11-20T11:02:54;5.10;56.60
21439;DHT22;10880;50.302;18.736;2022-11-20T11:05:47;5.20;56.90
21439;DHT22;10880;50.302;18.736;2022-11-20T11:08:17;5.20;56.30
21439;DHT22;10880;50.302;18.736;2022-11-20T11:13:48;5.30;56.90
21439;DHT22;10880;50.302;18.736;2022-11-20T11:16:23;5.40;56.50
21439;DHT22;10880;50.302;18.736;2022-11-20T11:18:51;5.40;57.00
21439;DHT22;10880;50.302;18.736;2022-11-20T11:21:23;5.50;56.90
21439;DHT22;10880;50.302;18.736;2022-11-20T11:24:04;5.60;56.60
21439;DHT22;10880;50.302;18.736;2022-11-20T11:28:59;5.60;56.40
21439;DHT22;10880;50.302;18.736;2022-11-20T11:31:32;5.70;56.40
21439;DHT22;10880;50.302;18.736;2022-11-20T11:34:13;5.70;57.50
21439;DHT22;10880;50.302;18.736;2022-11-20T11:36:55;6.30;57.00
21439;DHT22;10880;50.302;18.736;2022-11-20T11:39:45;5.80;56.80
21439;DHT22;10880;50.302;18.736;2022-11-20T11:42:26;5.90;56.90
21439;DHT22;10880;50.302;18.736;2022-11-20T11:45:14;5.90;56.90
21439;DHT22;10880;50.302;18.736;2022-11-20T11:47:56;5.90;56.40
21439;DHT22;10880;50.302;18.736;2022-11-20T11:50:27;5.90;57.00
21439;DHT22;10880;50.302;18.736;2022-11-20T11:53:04;6.00;56.90
21439;DHT22;10880;50.302;18.736;2022-11-20T11:56:05;6.10;57.10
21439;DHT22;10880;50.302;18.736;2022-11-20T12:01:50;6.10;57.10
21439;DHT22;10880;50.302;18.736;2022-11-20T12:04:38;6.20;57.10
21439;DHT22;10880;50.302;18.736;2022-11-20T12:07:38;6.20;57.00
21439;DHT22;10880;50.302;18.736;2022-11-20T12:10:25;6.30;56.50
21439;DHT22;10880;50.302;18.736;2022-11-20T12:13:02;6.30;57.20
21439;DHT22;10880;50.302;18.736;2022-11-20T12:15:34;6.30;56.90
21439;DHT22;10880;50.302;18.736;2022-11-20T12:18:16;6.30;56.60
21439;DHT22;10880;50.302;18.736;2022-11-20T12:29:25;6.40;56.90
21439;DHT22;10880;50.302;18.736;2022-11-20T12:35:00;6.40;56.90
21439;DHT22;10880;50.302;18.736;2022-11-20T12:37:53;6.50;57.00
21439;DHT22;10880;50.302;18.736;2022-11-20T12:40:53;6.50;56.90
21439;DHT22;10880;50.302;18.736;2022-11-20T12:43:34;6.50;56.90
21439;DHT22;10880;50.302;18.736;2022-11-20T12:46:45;6.60;56.80
21439;DHT22;10880;50.302;18.736;2022-11-20T12:50:17;6.60;56.70
21439;DHT22;10880;50.302;18.736;2022-11-20T12:52:50;6.60;56.80
21439;DHT22;10880;50.302;18.736;2022-11-20T12:58:27;6.60;56.90
21439;DHT22;10880;50.302;18.736;2022-11-20T13:07:09;6.60;56.90
21439;DHT22;10880;50.302;18.736;2022-11-20T13:09:44;6.60;56.70
21439;DHT22;10880;50.302;18.736;2022-11-20T13:12:36;6.60;56.30
21439;DHT22;10880;50.302;18.736;2022-11-20T13:15:18;6.60;56.90
21439;DHT22;10880;50.302;18.736;2022-11-20T13:20:20;7.80;56.90
21439;DHT22;10880;50.302;18.736;2022-11-20T13:22:52;6.60;56.30
21439;DHT22;10880;50.302;18.736;2022-11-20T13:27:50;6.60;56.50
21439;DHT22;10880;50.302;18.736;2022-11-20T13:30:23;6.60;57.30
21439;DHT22;10880;50.302;18.736;2022-11-20T13:33:25;6.60;57.60
21439;DHT22;10880;50.302;18.736;2022-11-20T13:36:21;6.60;56.90
21439;DHT22;10880;50.302;18.736;2022-11-20T13:38:51;6.70;56.90
21439;DHT22;10880;50.302;18.736;2022-11-20T13:41:36;6.60;56.80
21439;DHT22;10880;50.302;18.736;2022-11-20T13:46:49;6.70;56.60
21439;DHT22;10880;50.302;18.736;2022-11-20T13:51:50;6.70;56.90
21439;DHT22;10880;50.302;18.736;2022-11-20T13:57:42;6.70;56.40
21439;DHT22;10880;50.302;18.736;2022-11-20T14:00:17;6.70;56.90
21439;DHT22;10880;50.302;18.736;2022-11-20T14:05:23;6.70;56.90
21439;DHT22;10880;50.302;18.736;2022-11-20T14:07:52;6.70;56.30
21439;DHT22;10880;50.302;18.736;2022-11-20T14:10:25;6.70;56.80
21439;DHT22;10880;50.302;18.736;2022-11-20T14:12:52;8.20;58.20
21439;DHT22;10880;50.302;18.736;2022-11-20T14:15:34;6.70;56.30
21439;DHT22;10880;50.302;18.736;2022-11-20T14:18:14;6.70;56.90
21439;DHT22;10880;50.302;18.736;2022-11-20T14:20:42;6.70;56.80
21439;DHT22;10880;50.302;18.736;2022-11-20T14:23:10;7.50;57.00
21439;DHT22;10880;50.302;18.736;2022-11-20T14:25:45;6.70;56.40
21439;DHT22;10880;50.302;18.736;2022-11-20T14:28:21;6.70;56.30
21439;DHT22;10880;50.302;18.736;2022-11-20T14:30:50;6.70;56.70
21439;DHT22;10880;50.302;18.736;2022-11-20T14:33:18;6.70;56.50
21439;DHT22;10880;50.302;18.736;2022-11-20T14:35:49;6.80;56.70
21439;DHT22;10880;50.302;18.736;2022-11-20T14:38:20;6.80;56.60
21439;DHT22;10880;50.302;18.736;2022-11-20T14:40:47;6.80;56.60
21439;DHT22;10880;50.302;18.736;2022-11-20T14:43:28;6.80;56.30
21439;DHT22;10880;50.302;18.736;2022-11-20T14:46:02;6.80;56.60
21439;DHT22;10880;50.302;18.736;2022-11-20T14:48:43;6.80;56.60
21439;DHT22;10880;50.302;18.736;2022-11-20T14:51:11;6.80;56.00
21439;DHT22;10880;50.302;18.736;2022-11-20T14:53:38;6.80;56.00
21439;DHT22;10880;50.302;18.736;2022-11-20T14:56:04;8.70;57.10
21439;DHT22;10880;50.302;18.736;2022-11-20T14:58:33;6.80;56.00
21439;DHT22;10880;50.302;18.736;2022-11-20T15:01:05;6.80;56.10
21439;DHT22;10880;50.302;18.736;2022-11-20T15:03:33;6.80;56.60
21439;DHT22;10880;50.302;18.736;2022-11-20T15:06:05;6.80;56.50
21439;DHT22;10880;50.302;18.736;2022-11-20T15:08:32;6.80;56.50
21439;DHT22;10880;50.302;18.736;2022-11-20T15:10:59;7.70;56.70
21439;DHT22;10880;50.302;18.736;2022-11-20T15:13:32;6.80;56.00
21439;DHT22;10880;50.302;18.736;2022-11-20T15:16:17;6.80;56.60
21439;DHT22;10880;50.302;18.736;2022-11-20T15:18:44;6.80;56.60
21439;DHT22;10880;50.302;18.736;2022-11-20T15:21:13;6.80;56.10
21439;DHT22;10880;50.302;18.736;2022-11-20T15:23:39;7.00;56.70
21439;DHT22;10880;50.302;18.736;2022-11-20T15:26:07;6.80;56.20
21439;DHT22;10880;50.302;18.736;2022-11-20T15:28:45;6.90;56.60
21439;DHT22;10880;50.302;18.736;2022-11-20T15:31:15;6.90;56.70
21439;DHT22;10880;50.302;18.736;2022-11-20T15:33:42;6.90;56.60
21439;DHT22;10880;50.302;18.736;2022-11-20T15:36:09;7.60;56.60
21439;DHT22;10880;50.302;18.736;2022-11-20T15:38:36;6.80;56.00
21439;DHT22;10880;50.302;18.736;2022-11-20T15:41:03;6.80;56.00
21439;DHT22;10880;50.302;18.736;2022-11-20T15:43:30;6.80;56.30
21439;DHT22;10880;50.302;18.736;2022-11-20T15:46:13;6.80;56.20
21439;DHT22;10880;50.302;18.736;2022-11-20T15:48:51;6.80;56.30
21439;DHT22;10880;50.302;18.736;2022-11-20T15:51:29;8.30;57.70
21439;DHT22;10880;50.302;18.736;2022-11-20T15:53:56;6.80;56.90
21439;DHT22;10880;50.302;18.736;2022-11-20T15:56:23;6.80;56.40
21439;DHT22;10880;50.302;18.736;2022-11-20T15:58:50;7.80;57.50
21439;DHT22;10880;50.302;18.736;2022-11-20T16:01:19;6.80;56.40
21439;DHT22;10880;50.302;18.736;2022-11-20T16:03:46;6.80;56.90
21439;DHT22;10880;50.302;18.736;2022-11-20T16:06:13;7.10;56.70
21439;DHT22;10880;50.302;18.736;2022-11-20T16:08:39;6.80;56.40
21439;DHT22;10880;50.302;18.736;2022-11-20T16:11:06;6.80;56.90
21439;DHT22;10880;50.302;18.736;2022-11-20T16:13:32;6.80;56.40
21439;DHT22;10880;50.302;18.736;2022-11-20T16:16:21;8.30;57.60
21439;DHT22;10880;50.302;18.736;2022-11-20T16:18:48;6.80;56.90
21439;DHT22;10880;50.302;18.736;2022-11-20T16:21:14;6.90;56.90
21439;DHT22;10880;50.302;18.736;2022-11-20T16:23:42;7.10;56.60
21439;DHT22;10880;50.302;18.736;2022-11-20T16:26:16;7.10;56.90
21439;DHT22;10880;50.302;18.736;2022-11-20T16:28:46;6.90;57.00
21439;DHT22;10880;50.302;18.736;2022-11-20T16:31:15;6.90;56.40
21439;DHT22;10880;50.302;18.736;2022-11-20T16:33:41;6.90;56.80
21439;DHT22;10880;50.302;18.736;2022-11-20T16:36:13;6.90;56.50
21439;DHT22;10880;50.302;18.736;2022-11-20T16:38:40;6.90;56.70
21439;DHT22;10880;50.302;18.736;2022-11-20T16:41:07;6.90;56.10
21439;DHT22;10880;50.302;18.736;2022-11-20T16:43:51;6.90;56.50
21439;DHT22;10880;50.302;18.736;2022-11-20T16:46:22;7.20;56.60
21439;DHT22;10880;50.302;18.736;2022-11-20T16:48:56;6.80;55.80
21439;DHT22;10880;50.302;18.736;2022-11-20T16:51:27;6.80;56.40
21439;DHT22;10880;50.302;18.736;2022-11-20T16:53:54;6.80;56.30
21439;DHT22;10880;50.302;18.736;2022-11-20T16:56:23;6.90;56.10
21439;DHT22;10880;50.302;18.736;2022-11-20T16:58:56;6.80;56.30
21439;DHT22;10880;50.302;18.736;2022-11-20T17:01:23;6.70;56.20
21439;DHT22;10880;50.302;18.736;2022-11-20T17:04:01;8.60;57.20
21439;DHT22;10880;50.302;18.736;2022-11-20T17:06:30;6.70;55.80
21439;DHT22;10880;50.302;18.736;2022-11-20T17:08:57;6.70;55.80
21439;DHT22;10880;50.302;18.736;2022-11-20T17:11:25;6.60;56.00
21439;DHT22;10880;50.302;18.736;2022-11-20T17:13:54;6.60;56.10
21439;DHT22;10880;50.302;18.736;2022-11-20T17:16:22;7.10;56.40
21439;DHT22;10880;50.302;18.736;2022-11-20T17:18:49;6.70;56.20
21439;DHT22;10880;50.302;18.736;2022-11-20T17:21:17;6.50;55.80
21439;DHT22;10880;50.302;18.736;2022-11-20T17:23:44;6.40;56.10
21439;DHT22;10880;50.302;18.736;2022-11-20T17:26:15;6.40;56.10
21439;DHT22;10880;50.302;18.736;2022-11-20T17:29:00;6.90;56.50
21439;DHT22;10880;50.302;18.736;2022-11-20T17:31:32;6.30;56.00
21439;DHT22;10880;50.302;18.736;2022-11-20T17:34:02;6.20;55.90
21439;DHT22;10880;50.302;18.736;2022-11-20T17:36:29;6.20;55.80
21439;DHT22;10880;50.302;18.736;2022-11-20T17:38:56;6.20;55.70
21439;DHT22;10880;50.302;18.736;2022-11-20T17:41:26;6.10;56.10